Lincoln, NE (68521)

6:22 AM CST on February 06, 2016 (GMT -0600)
Fallbrook | | Change Station
CLOSE
Current Station
Personal Weather Station
Location: Lincoln, NE
Elevation: 1296 ft
Nearby Weather Stations

Elev 1296 ft 40.88 °N, 96.73 °W | Updated 2 minutes ago

Light Freezing Fog
Freezing Fog
23.1 °F
Feels Like 16 °F
N
6.0
Wind Variable Wind from WNW
Gusts 38.0 mph

Today
High -- | Low -- °F
--% Chance of Precip.
Yesterday
High -- | Low -- °F
Precip. -- in
Pressure 30.31 in
Visibility 0.2 miles
Clouds
Windchill 16 °F
Dew Point 22 °F
Humidity 95%
Rainfall 0.00 in
Snow Depth Not available.
7:32 AM 5:49 PM
Waning Crescent, 6% visible
METAR KLNK 061154Z 22003KT 1/4SM R36/5500VP6000FT FZFG VV001 M06/M07 A3026 RMK AO2 SLP262 70006 I1000 I6000 T10611072 10017 21072 58008
Pressure 30.31 in
Visibility 0.2 miles
Clouds
Windchill 16 °F
Dew Point 22 °F
Humidity 95%
Rainfall 0.00 in
Snow Depth Not available.
7:32 AM 5:49 PM
Waning Crescent, 6% visible
METAR KLNK 061154Z 22003KT 1/4SM R36/5500VP6000FT FZFG VV001 M06/M07 A3026 RMK AO2 SLP262 70006 I1000 I6000 T10611072 10017 21072 58008

10-Day Weather Forecast

Almanac

Astronomy

Feb. 06, 2016 Rise Set
Actual Time
Civil Twilight
Nautical Twilight
Astronomical Twilight
Moon
Length of Visible Light
Length of Day
Tomorrow will be .
, % of the Moon is Illuminated

Today's Extremes

State Highs State Lows

Community

WunderPhotos

Upload Photos

1,890,944 photos uploaded!

WunderBlog® & News

Nearby

Air Quality

  Air Quality AQ Index Pollutant
Not available.

Snow Depth

Station Depth Elevation

Earthquake Activity

City Distance Mag. Time & Date
Minimum magnitude displayed is 2.5.

Coastal Water Temperatures

Place Temperature

Stations

Nearby Weather Stations

Station Location Temp. Windchill Dew Point Humidity Wind Precip. Elev Updated Type
                   

Watches & Warnings

There are currently no watches in effect.